createdAt,value
2023-04-02T00:00:18.540Z,55.74
2023-04-02T00:03:09.481Z,55.47
2023-04-02T00:05:51.188Z,55.68
2023-04-02T00:08:27.437Z,55.41
2023-04-02T00:10:59.878Z,55.37
2023-04-02T00:13:35.498Z,55.55
2023-04-02T00:16:08.981Z,55.19
2023-04-02T00:18:43.240Z,55.16
2023-04-02T00:21:20.324Z,55.35
2023-04-02T00:23:49.258Z,55.17
2023-04-02T00:26:32.164Z,54.71
2023-04-02T00:29:03.927Z,54.63
2023-04-02T00:31:35.199Z,54.31
2023-04-02T00:34:07.816Z,54.61
2023-04-02T00:36:38.645Z,54.22
2023-04-02T00:39:13.645Z,54.69
2023-04-02T00:41:46.862Z,54.75
2023-04-02T00:44:21.734Z,54.83
2023-04-02T00:46:53.557Z,54.91
2023-04-02T00:49:27.888Z,54.95
2023-04-02T00:52:01.651Z,55.24
2023-04-02T00:54:37.987Z,55.21
2023-04-02T00:57:17.531Z,55.37
2023-04-02T00:59:56.928Z,56.21
2023-04-02T01:02:30.609Z,56.41
2023-04-02T01:05:02.858Z,56.59
2023-04-02T01:07:47.928Z,56.86
2023-04-02T01:10:43.011Z,56.77
2023-04-02T01:13:23.838Z,56.77
2023-04-02T01:15:58.457Z,57.06
2023-04-02T01:18:46.082Z,57.35
2023-04-02T01:21:21.969Z,57.16
2023-04-02T01:24:01.905Z,57.34
2023-04-02T01:26:50.962Z,57.08
2023-04-02T01:29:22.333Z,56.83
2023-04-02T01:31:53.677Z,56.64
2023-04-02T01:34:27.334Z,56.22
2023-04-02T01:37:07.402Z,55.75
2023-04-02T01:39:46.886Z,55.48
2023-04-02T01:42:21.679Z,55.35
2023-04-02T01:44:53.006Z,55.84
2023-04-02T01:47:25.534Z,56.26
2023-04-02T01:49:59.054Z,56.27
2023-04-02T01:52:39.089Z,56.91
2023-04-02T01:55:12.848Z,57.26
2023-04-02T01:57:44.705Z,57.17
2023-04-02T02:00:18.832Z,57.54
2023-04-02T02:02:51.582Z,58.63
2023-04-02T02:05:24.003Z,58.83
2023-04-02T02:07:56.391Z,58.74
2023-04-02T02:10:29.889Z,58.87
2023-04-02T02:13:00.922Z,59.45
2023-04-02T02:15:34.452Z,59.55
2023-04-02T02:18:06.867Z,59.81
2023-04-02T02:20:37.969Z,60.02
2023-04-02T02:23:10.384Z,59.67
2023-04-02T02:25:42.206Z,59.33
2023-04-02T02:28:16.502Z,59.73
2023-04-02T02:30:48.114Z,59.54
2023-04-02T02:33:22.459Z,59.38
2023-04-02T02:35:57.441Z,59.47
2023-04-02T02:38:51.843Z,59.46
2023-04-02T02:41:29.192Z,59.33
2023-04-02T02:44:03.087Z,59.50
2023-04-02T02:46:34.554Z,59.72
2023-04-02T02:49:05.950Z,59.99
2023-04-02T02:51:43.062Z,60.16
2023-04-02T02:54:13.778Z,60.22
2023-04-02T02:56:48.043Z,60.58
2023-04-02T02:59:19.308Z,60.49
2023-04-02T03:01:49.710Z,60.49
2023-04-02T03:04:23.371Z,60.25
2023-04-02T03:06:55.970Z,60.41
2023-04-02T03:09:34.887Z,60.10
2023-04-02T03:12:09.662Z,59.79
2023-04-02T03:14:43.986Z,59.18
2023-04-02T03:17:19.136Z,59.24
2023-04-02T03:19:53.075Z,58.98
2023-04-02T03:22:27.054Z,58.26
2023-04-02T03:25:00.533Z,57.85
2023-04-02T03:27:34.998Z,56.82
2023-04-02T03:30:28.678Z,56.87
2023-04-02T03:33:02.673Z,56.35
2023-04-02T03:35:39.831Z,55.91
2023-04-02T03:38:17.360Z,55.73
2023-04-02T03:41:00.110Z,56.03
2023-04-02T03:43:33.375Z,55.98
2023-04-02T03:46:10.775Z,55.84
2023-04-02T03:48:43.420Z,55.83
2023-04-02T03:51:18.655Z,56.34
2023-04-02T03:53:51.544Z,56.31
2023-04-02T03:56:28.307Z,56.70
2023-04-02T03:59:06.310Z,57.02
2023-04-02T04:01:42.960Z,57.24
2023-04-02T04:04:16.966Z,57.28
2023-04-02T04:06:52.122Z,57.38
2023-04-02T04:09:26.086Z,57.52
2023-04-02T04:12:02.899Z,56.88
2023-04-02T04:14:38.369Z,56.66
2023-04-02T04:17:15.511Z,56.44
2023-04-02T04:19:49.385Z,57.00
2023-04-02T04:22:21.329Z,56.95
2023-04-02T04:24:51.728Z,57.29
2023-04-02T04:27:33.315Z,57.63
2023-04-02T04:30:05.695Z,57.70
2023-04-02T04:32:38.804Z,58.13
2023-04-02T04:35:17.167Z,58.24
2023-04-02T04:37:49.548Z,57.99
2023-04-02T04:40:23.484Z,58.01
2023-04-02T04:42:56.242Z,58.19
2023-04-02T04:45:36.922Z,58.12
2023-04-02T04:48:14.328Z,58.76
2023-04-02T04:50:51.447Z,58.40
2023-04-02T04:53:24.891Z,58.77
2023-04-02T04:56:01.330Z,59.12
2023-04-02T04:58:41.630Z,59.00
2023-04-02T05:01:14.659Z,59.12
2023-04-02T05:03:47.397Z,59.28
2023-04-02T05:06:24.615Z,59.36
2023-04-02T05:08:58.293Z,59.03
2023-04-02T05:11:33.017Z,58.77
2023-04-02T05:14:06.302Z,58.53
2023-04-02T05:16:40.748Z,58.41
2023-04-02T05:19:14.920Z,58.37
2023-04-02T05:21:48.143Z,57.75
2023-04-02T05:24:44.969Z,58.02
2023-04-02T05:27:24.087Z,57.68
2023-04-02T05:30:00.217Z,57.37
2023-04-02T05:32:32.790Z,56.94
2023-04-02T05:35:06.281Z,56.84
2023-04-02T05:37:36.838Z,56.91
2023-04-02T05:40:16.241Z,56.73
2023-04-02T05:42:50.294Z,56.67
2023-04-02T05:45:26.882Z,56.61
2023-04-02T05:48:01.974Z,56.22
2023-04-02T05:50:37.081Z,56.55
2023-04-02T05:53:11.931Z,56.17
2023-04-02T05:55:51.892Z,56.02
2023-04-02T06:01:12.500Z,55.23
2023-04-02T06:03:47.610Z,54.94
2023-04-02T06:06:23.871Z,54.58
2023-04-02T06:08:59.655Z,53.59
2023-04-02T06:11:32.454Z,52.86
2023-04-02T06:14:04.573Z,52.43
2023-04-02T06:16:37.990Z,51.06
2023-04-02T06:19:11.794Z,49.71
2023-04-02T06:21:46.860Z,47.92
2023-04-02T06:24:19.260Z,46.68
2023-04-02T06:26:54.244Z,45.80
2023-04-02T06:29:29.848Z,45.40
2023-04-02T06:32:02.216Z,44.97
2023-04-02T06:34:33.330Z,44.36
2023-04-02T06:37:09.250Z,43.14
2023-04-02T06:39:39.646Z,42.25
2023-04-02T06:42:14.402Z,41.54
2023-04-02T06:44:45.412Z,40.88
2023-04-02T06:47:23.391Z,40.21
2023-04-02T06:49:57.733Z,39.76
2023-04-02T06:52:33.339Z,38.83
2023-04-02T06:55:18.057Z,36.66
2023-04-02T06:57:48.858Z,36.83
2023-04-02T07:00:29.386Z,36.14
2023-04-02T07:03:02.937Z,34.86
2023-04-02T07:05:33.547Z,33.60
2023-04-02T07:08:04.403Z,32.84
2023-04-02T07:10:36.364Z,32.37
2023-04-02T07:13:08.240Z,31.85
2023-04-02T07:15:39.382Z,31.53
2023-04-02T07:18:12.843Z,30.86
2023-04-02T07:20:43.290Z,29.30
2023-04-02T07:23:15.793Z,28.63
2023-04-02T07:25:48.240Z,27.72
2023-04-02T07:28:19.940Z,26.41
2023-04-02T07:30:52.750Z,25.49
2023-04-02T07:33:25.808Z,24.64
2023-04-02T07:35:57.703Z,24.34
2023-04-02T07:38:28.076Z,23.60
2023-04-02T07:40:58.768Z,24.19
2023-04-02T07:43:30.693Z,24.46
2023-04-02T07:46:01.515Z,24.77
2023-04-02T07:48:32.422Z,24.73
2023-04-02T07:51:04.569Z,24.81
2023-04-02T07:53:38.891Z,25.01
2023-04-02T07:56:16.417Z,25.48
2023-04-02T07:58:47.125Z,25.53
2023-04-02T08:01:20.756Z,25.72
2023-04-02T08:03:54.170Z,26.13
2023-04-02T08:06:27.211Z,26.82
2023-04-02T08:08:58.462Z,26.59
2023-04-02T08:11:31.817Z,25.98
2023-04-02T08:14:03.009Z,26.02
2023-04-02T08:16:47.766Z,26.29
2023-04-02T08:19:20.221Z,27.18
2023-04-02T08:21:51.725Z,27.45
2023-04-02T08:24:22.607Z,28.10
2023-04-02T08:26:54.425Z,28.06
2023-04-02T08:29:29.316Z,28.87
2023-04-02T08:32:00.254Z,29.71
2023-04-02T08:34:31.703Z,30.11
2023-04-02T08:37:02.528Z,30.55
2023-04-02T08:39:35.072Z,31.22
2023-04-02T08:42:12.976Z,32.25
2023-04-02T08:44:52.954Z,32.28
2023-04-02T08:47:26.253Z,32.05
2023-04-02T08:50:00.892Z,31.73
2023-04-02T08:52:38.513Z,31.66
2023-04-02T08:55:21.100Z,31.72
2023-04-02T08:58:10.250Z,31.81
2023-04-02T09:00:52.372Z,31.90
2023-04-02T09:03:29.621Z,31.82
2023-04-02T09:06:01.140Z,32.10
2023-04-02T09:08:33.085Z,31.64
2023-04-02T09:11:11.152Z,31.75
2023-04-02T09:13:46.321Z,31.83
2023-04-02T09:16:23.430Z,31.72
2023-04-02T09:18:58.367Z,31.01
2023-04-02T09:21:39.947Z,31.18
2023-04-02T09:24:13.486Z,31.25
2023-04-02T09:26:45.012Z,31.10
2023-04-02T09:29:39.571Z,30.68
2023-04-02T09:32:22.000Z,31.13
2023-04-02T09:35:24.442Z,31.07
2023-04-02T09:38:31.837Z,30.77
2023-04-02T09:41:06.767Z,30.70
2023-04-02T09:43:39.035Z,30.49
2023-04-02T09:46:29.229Z,30.45
2023-04-02T09:49:03.787Z,30.24
2023-04-02T09:51:36.346Z,30.34
2023-04-02T09:54:17.125Z,30.08
2023-04-02T09:57:02.736Z,29.79
2023-04-02T09:59:33.398Z,29.99
2023-04-02T10:02:04.974Z,30.32
2023-04-02T10:04:44.081Z,30.45
2023-04-02T10:07:35.498Z,30.77
2023-04-02T10:10:18.520Z,30.93
2023-04-02T10:12:53.775Z,30.76
2023-04-02T10:15:28.450Z,30.78
2023-04-02T10:18:06.525Z,30.80
2023-04-02T10:20:50.586Z,30.69
2023-04-02T10:23:24.292Z,30.69
2023-04-02T10:25:59.429Z,30.66
2023-04-02T10:28:51.074Z,31.79
2023-04-02T10:31:25.751Z,31.89
2023-04-02T10:34:02.249Z,31.97
2023-04-02T10:36:45.169Z,31.32
2023-04-02T10:39:17.840Z,31.16
2023-04-02T10:41:52.904Z,30.79
2023-04-02T10:44:39.343Z,30.74
2023-04-02T10:47:27.311Z,30.53
2023-04-02T10:50:08.295Z,30.71
2023-04-02T10:52:42.364Z,30.78
2023-04-02T10:55:19.234Z,30.68
2023-04-02T10:57:50.250Z,30.38
2023-04-02T11:00:25.309Z,30.15
2023-04-02T11:02:57.815Z,29.99
2023-04-02T11:05:36.657Z,29.96
2023-04-02T11:08:11.610Z,29.95
2023-04-02T11:10:47.626Z,29.95
2023-04-02T11:13:35.988Z,29.75
2023-04-02T11:16:07.430Z,29.87
2023-04-02T11:18:38.973Z,29.59
2023-04-02T11:21:17.264Z,29.80
2023-04-02T11:24:01.095Z,29.91
2023-04-02T11:26:38.270Z,29.74
2023-04-02T11:29:25.833Z,29.76
2023-04-02T11:32:33.694Z,29.57
2023-04-02T11:35:30.945Z,29.22
2023-04-02T11:38:04.429Z,29.10
2023-04-02T11:40:51.977Z,28.81
2023-04-02T11:43:52.875Z,29.03
2023-04-02T11:46:46.652Z,28.88
2023-04-02T11:49:35.634Z,28.64
2023-04-02T11:52:20.417Z,28.71
2023-04-02T11:54:58.735Z,28.78
2023-04-02T11:57:38.178Z,28.84
2023-04-02T12:00:21.981Z,28.65
2023-04-02T12:03:03.363Z,28.80
2023-04-02T12:05:37.509Z,29.55
2023-04-02T12:08:19.082Z,29.84
2023-04-02T12:10:56.194Z,30.06
2023-04-02T12:13:53.333Z,30.14
2023-04-02T12:16:25.198Z,30.35
2023-04-02T12:18:55.700Z,30.22
2023-04-02T12:21:28.332Z,29.59
2023-04-02T12:23:59.830Z,29.57
2023-04-02T12:26:37.119Z,29.83
2023-04-02T12:29:25.956Z,30.00
2023-04-02T12:31:59.996Z,29.96
2023-04-02T12:34:31.933Z,29.77
2023-04-02T12:37:03.992Z,29.98
2023-04-02T12:39:35.159Z,30.03
2023-04-02T12:42:06.334Z,30.15
2023-04-02T12:44:37.013Z,30.11
2023-04-02T12:47:07.878Z,30.41
2023-04-02T12:49:40.140Z,30.32
2023-04-02T12:52:12.638Z,30.85
2023-04-02T12:54:48.060Z,30.72
2023-04-02T12:57:36.276Z,30.77
2023-04-02T13:00:31.791Z,31.43
2023-04-02T13:03:18.543Z,32.01
2023-04-02T13:05:53.309Z,32.29
2023-04-02T13:08:27.531Z,32.57
2023-04-02T13:11:00.156Z,32.55
2023-04-02T13:13:33.750Z,32.76
2023-04-02T13:16:20.114Z,33.01
2023-04-02T13:18:51.517Z,33.30
2023-04-02T13:21:28.440Z,33.57
2023-04-02T13:23:59.354Z,33.89
2023-04-02T13:26:30.562Z,34.06
2023-04-02T13:29:03.102Z,34.15
2023-04-02T13:31:34.425Z,34.56
2023-04-02T13:34:05.990Z,34.81
2023-04-02T13:36:38.977Z,35.28
2023-04-02T13:39:09.300Z,35.89
2023-04-02T13:41:42.886Z,36.09
2023-04-02T13:44:21.875Z,36.63
2023-04-02T13:46:52.634Z,37.26
2023-04-02T13:49:24.359Z,37.76
2023-04-02T13:51:57.938Z,38.11
2023-04-02T13:54:34.838Z,38.06
2023-04-02T13:57:13.868Z,38.44
2023-04-02T13:59:47.098Z,38.67
2023-04-02T14:02:23.014Z,38.93
2023-04-02T14:04:56.653Z,39.44
2023-04-02T14:07:41.352Z,39.97
2023-04-02T14:10:27.112Z,40.36
2023-04-02T14:13:14.284Z,40.93
2023-04-02T14:15:59.342Z,40.82
2023-04-02T14:18:46.751Z,41.03
2023-04-02T14:21:17.665Z,41.24
2023-04-02T14:24:07.453Z,41.87
2023-04-02T14:26:45.602Z,42.02
2023-04-02T14:29:20.764Z,42.28
2023-04-02T14:31:58.213Z,42.41
2023-04-02T14:34:36.953Z,42.68
2023-04-02T14:37:13.948Z,42.93
2023-04-02T14:39:50.164Z,43.12
2023-04-02T14:42:29.143Z,44.20
2023-04-02T14:45:19.723Z,44.42
2023-04-02T14:47:53.201Z,45.10
2023-04-02T14:50:28.176Z,45.27
2023-04-02T14:53:06.182Z,45.67
2023-04-02T14:55:39.762Z,46.05
2023-04-02T14:58:14.946Z,46.03
2023-04-02T15:00:50.238Z,46.43
2023-04-02T15:03:24.670Z,46.76
2023-04-02T15:05:56.926Z,47.03
2023-04-02T15:08:29.135Z,47.14
2023-04-02T15:11:05.875Z,47.66
2023-04-02T15:13:44.379Z,47.71
2023-04-02T15:16:19.387Z,47.91
2023-04-02T15:18:53.223Z,48.36
2023-04-02T15:21:55.848Z,49.01
2023-04-02T15:24:35.319Z,49.25
2023-04-02T15:27:24.940Z,49.57
2023-04-02T15:30:01.232Z,49.89
2023-04-02T15:32:40.763Z,50.32
2023-04-02T15:35:33.910Z,51.15
2023-04-02T15:38:11.021Z,50.88
2023-04-02T15:40:51.326Z,51.15
2023-04-02T15:43:25.795Z,51.36
2023-04-02T15:46:08.134Z,51.50
2023-04-02T15:48:54.051Z,51.84
2023-04-02T15:51:38.013Z,51.83
2023-04-02T15:54:20.884Z,52.43
2023-04-02T15:56:57.265Z,52.55
2023-04-02T15:59:44.733Z,52.77
2023-04-02T16:02:19.195Z,53.00
2023-04-02T16:04:54.040Z,53.34
2023-04-02T16:07:46.276Z,53.58
2023-04-02T16:10:33.901Z,53.83
2023-04-02T16:13:18.464Z,54.00
2023-04-02T16:15:51.964Z,54.22
2023-04-02T16:18:31.543Z,53.98
2023-04-02T16:21:04.788Z,54.42
2023-04-02T16:23:38.570Z,54.57
2023-04-02T16:26:27.994Z,54.58
2023-04-02T16:29:24.731Z,55.14
2023-04-02T16:32:01.392Z,55.19
2023-04-02T16:34:40.105Z,55.21
2023-04-02T16:37:15.644Z,55.48
2023-04-02T16:39:56.020Z,55.65
2023-04-02T16:42:49.539Z,55.76
2023-04-02T16:45:29.537Z,56.14
2023-04-02T16:48:14.929Z,56.05
2023-04-02T16:50:56.445Z,56.04
2023-04-02T16:57:49.259Z,55.97
2023-04-02T17:00:27.778Z,56.07
2023-04-02T17:03:15.069Z,56.32
2023-04-02T17:05:59.310Z,56.35
2023-04-02T17:08:47.560Z,56.41
2023-04-02T17:11:38.616Z,56.44
2023-04-02T17:14:23.940Z,56.44
2023-04-02T17:16:59.952Z,56.42
2023-04-02T17:19:32.272Z,56.30
2023-04-02T17:22:07.553Z,56.03
2023-04-02T17:24:41.209Z,56.58
2023-04-02T17:27:19.923Z,56.54
2023-04-02T17:29:53.528Z,56.42
2023-04-02T17:32:27.950Z,56.72
2023-04-02T17:35:00.164Z,56.60
2023-04-02T17:37:34.278Z,56.62
2023-04-02T17:40:31.783Z,56.54
2023-04-02T17:43:08.728Z,56.72
2023-04-02T17:45:45.476Z,56.63
2023-04-02T17:48:21.331Z,56.57
2023-04-02T17:50:59.570Z,56.41
2023-04-02T17:53:41.065Z,56.52
2023-04-02T17:56:33.559Z,56.59
2023-04-02T17:59:15.800Z,56.34
2023-04-02T18:01:50.707Z,56.57
2023-04-02T18:04:33.055Z,56.41
2023-04-02T18:07:13.799Z,56.32
2023-04-02T18:09:47.920Z,56.40
2023-04-02T18:12:28.587Z,56.17
2023-04-02T18:15:14.675Z,56.41
2023-04-02T18:17:50.823Z,56.29
2023-04-02T18:20:28.107Z,56.30
2023-04-02T18:23:06.193Z,56.56
2023-04-02T18:25:55.412Z,56.43
2023-04-02T18:28:38.661Z,56.36
2023-04-02T18:31:36.074Z,56.21
2023-04-02T18:34:28.403Z,56.41
2023-04-02T18:37:09.162Z,56.38
2023-04-02T18:39:47.730Z,56.60
2023-04-02T18:42:30.021Z,56.69
2023-04-02T18:45:08.626Z,56.74
2023-04-02T18:47:42.761Z,56.90
2023-04-02T18:50:18.439Z,56.83
2023-04-02T18:52:53.880Z,57.19
2023-04-02T18:55:26.896Z,57.00
2023-04-02T18:58:01.883Z,57.21
2023-04-02T19:00:36.326Z,57.26
2023-04-02T19:03:13.023Z,57.46
2023-04-02T19:05:46.907Z,57.74
2023-04-02T19:08:20.330Z,57.77
2023-04-02T19:10:53.525Z,58.00
2023-04-02T19:13:25.280Z,58.12
2023-04-02T19:16:40.122Z,57.82
2023-04-02T19:19:15.847Z,58.17
2023-04-02T19:22:00.003Z,58.06
2023-04-02T19:24:44.333Z,57.86
2023-04-02T19:27:22.800Z,58.17
2023-04-02T19:30:04.506Z,57.93
2023-04-02T19:32:41.687Z,57.73
2023-04-02T19:35:13.964Z,57.93
2023-04-02T19:37:46.848Z,57.80
2023-04-02T19:40:24.899Z,57.97
2023-04-02T19:42:56.876Z,57.75
2023-04-02T19:45:32.409Z,57.99
2023-04-02T19:48:10.472Z,57.95
2023-04-02T19:50:43.857Z,57.80
2023-04-02T19:53:14.761Z,57.87
2023-04-02T19:55:48.132Z,58.01
2023-04-02T19:58:26.649Z,58.26
2023-04-02T20:00:57.706Z,58.06
2023-04-02T20:03:28.563Z,58.05
2023-04-02T20:05:59.733Z,58.19
2023-04-02T20:08:31.522Z,58.24
2023-04-02T20:11:02.505Z,58.52
2023-04-02T20:13:33.754Z,58.38
2023-04-02T20:16:05.537Z,58.66
2023-04-02T20:18:37.396Z,58.93
2023-04-02T20:21:09.060Z,58.99
2023-04-02T20:23:39.268Z,58.98
2023-04-02T20:26:10.309Z,59.14
2023-04-02T20:28:41.304Z,59.14
2023-04-02T20:31:13.210Z,58.84
2023-04-02T20:33:45.186Z,59.05
2023-04-02T20:36:17.606Z,59.05
2023-04-02T20:38:47.978Z,59.13
2023-04-02T20:41:18.261Z,58.88
2023-04-02T20:43:49.513Z,58.71
2023-04-02T20:46:19.963Z,59.07
2023-04-02T20:48:50.475Z,59.00
2023-04-02T20:51:21.480Z,59.07
2023-04-02T20:53:51.965Z,59.05
2023-04-02T20:56:23.663Z,59.19
2023-04-02T20:58:54.486Z,59.37
2023-04-02T21:01:26.591Z,59.85
2023-04-02T21:03:57.912Z,59.89
2023-04-02T21:06:30.521Z,59.77
2023-04-02T21:09:01.077Z,59.62
2023-04-02T21:11:31.376Z,59.80
2023-04-02T21:14:01.960Z,59.72
2023-04-02T21:16:33.303Z,59.95
2023-04-02T21:19:05.942Z,60.23
2023-04-02T21:21:36.629Z,60.43
2023-04-02T21:24:09.138Z,60.58
2023-04-02T21:26:40.998Z,60.10
2023-04-02T21:29:12.866Z,60.38
2023-04-02T21:31:43.946Z,60.40
2023-04-02T21:34:16.834Z,60.48
2023-04-02T21:36:48.436Z,60.58
2023-04-02T21:39:20.975Z,60.63
2023-04-02T21:41:52.861Z,60.67
2023-04-02T21:44:24.204Z,60.59
2023-04-02T21:46:54.950Z,60.65
2023-04-02T21:49:26.063Z,60.64
2023-04-02T21:51:56.673Z,60.71
2023-04-02T21:54:27.056Z,60.58
2023-04-02T21:56:57.484Z,60.90
2023-04-02T21:59:27.910Z,61.03
2023-04-02T22:01:58.162Z,60.81
2023-04-02T22:04:30.308Z,61.13
2023-04-02T22:07:00.718Z,60.99
2023-04-02T22:09:31.149Z,60.99
2023-04-02T22:12:02.165Z,61.09
2023-04-02T22:14:32.833Z,61.25
2023-04-02T22:17:03.696Z,61.27
2023-04-02T22:19:34.266Z,61.30
2023-04-02T22:22:04.724Z,61.44
2023-04-02T22:24:35.472Z,61.73
2023-04-02T22:27:05.936Z,61.09
2023-04-02T22:29:36.554Z,61.60
2023-04-02T22:32:06.935Z,61.33
2023-04-02T22:34:39.496Z,61.39
2023-04-02T22:37:10.404Z,61.04
2023-04-02T22:39:40.728Z,61.09
2023-04-02T22:42:11.113Z,61.41
2023-04-02T22:44:41.449Z,61.53
2023-04-02T22:47:11.807Z,60.99
2023-04-02T22:49:42.210Z,61.32
2023-04-02T22:52:13.258Z,61.68
2023-04-02T22:54:43.546Z,62.18
2023-04-02T22:57:13.913Z,62.01
2023-04-02T22:59:44.253Z,61.90
2023-04-02T23:02:14.714Z,62.07
2023-04-02T23:04:45.128Z,62.04
2023-04-02T23:07:16.123Z,62.15
2023-04-02T23:09:46.388Z,62.18
2023-04-02T23:12:16.519Z,62.58
2023-04-02T23:14:46.919Z,62.95
2023-04-02T23:17:17.108Z,63.06
2023-04-02T23:19:47.350Z,63.02
2023-04-02T23:22:17.640Z,63.31
2023-04-02T23:24:48.404Z,63.14
2023-04-02T23:27:18.811Z,63.39
2023-04-02T23:29:49.387Z,63.28
2023-04-02T23:32:20.878Z,63.57
2023-04-02T23:34:51.534Z,63.55
2023-04-02T23:37:21.844Z,63.44
2023-04-02T23:39:52.599Z,63.36
2023-04-02T23:42:23.096Z,63.83
2023-04-02T23:44:53.995Z,63.45
2023-04-02T23:47:24.475Z,63.47
2023-04-02T23:49:54.719Z,63.46
2023-04-02T23:52:25.000Z,63.50
2023-04-02T23:54:55.268Z,63.56
2023-04-02T23:57:25.898Z,63.76
2023-04-02T23:59:56.000Z,63.97
